This is the latest recevied weather packets stored in our database for station/object N3WPH. If no packets are shown the sender has not sent any weather packets the latest 10 day(s).
| Time | Temp. | Humidity | Pressure | Rain* | Wind** | Luminosity | Snow |
|---|---|---|---|---|---|---|---|
| 1777974859 | 14.44° C | 71% | 1009 hPa | 0 mm | - | 2 W/m² | - |
| 1777974555 | 15° C | 70% | 1008.8 hPa | 0 mm | - | 1 W/m² | - |
| 1777974252 | 15° C | 69% | 1008.9 hPa | 0 mm | - | 0 W/m² | - |
| 1777973948 | 15° C | 69% | 1008.7 hPa | 0 mm | - | 0 W/m² | - |
| 1777973645 | 15° C | 68% | 1008.8 hPa | 0 mm | - | 0 W/m² | - |
| 1777973342 | 15° C | 68% | 1008.8 hPa | 0 mm | - | 0 W/m² | - |
| 1777973040 | 15.56° C | 67% | 1008.8 hPa | 0 mm | - | 0 W/m² | - |
| 1777972737 | 15.56° C | 68% | 1008.6 hPa | 0 mm | - | 0 W/m² | - |
| 1777972435 | 15° C | 68% | 1008.8 hPa | 0 mm | - | 0 W/m² | - |
| 1777972133 | 14.44° C | 70% | 1008.5 hPa | 0 mm | - | 0 W/m² | - |
| 1777971831 | 13.89° C | 72% | 1008.8 hPa | 0 mm | - | 0 W/m² | - |
| 1777971528 | 13.89° C | 75% | 1008.7 hPa | 0 mm | - | 0 W/m² | - |
| 1777971226 | 12.78° C | 82% | 1008.9 hPa | 0 mm | - | 0 W/m² | - |
| 1777970923 | 12.78° C | 87% | 1008.9 hPa | 0 mm | - | 0 W/m² | - |
| 1777970622 | 12.78° C | 89% | 1008.9 hPa | 0 mm | - | 0 W/m² | - |
| 1777970319 | 12.78° C | 88% | 1008.8 hPa | 0 mm | - | 0 W/m² | - |
| 1777970016 | 13.33° C | 85% | 1008.8 hPa | 0 mm | - | 0 W/m² | - |
| 1777969712 | 13.89° C | 81% | 1008.9 hPa | 0 mm | - | 0 W/m² | - |
| 1777969408 | 15° C | 78% | 1009.1 hPa | 0 mm | - | 0 W/m² | - |
| 1777969105 | 15° C | 75% | 1009.3 hPa | 0 mm | - | 0 W/m² | - |
| 1777968802 | 15° C | 72% | 1009 hPa | 0 mm | - | 0 W/m² | - |
| 1777968499 | 15° C | 73% | 1008.8 hPa | 0 mm | - | 0 W/m² | - |
| 1777968195 | 15.56° C | 71% | 1008.6 hPa | 1.27 mm | - | 0 W/m² | - |
| 1777967890 | 16.11° C | 71% | 1008.5 hPa | 1.27 mm | - | 0 W/m² | - |
| 1777967588 | 16.67° C | 64% | 1008.2 hPa | 0 mm | - | 0 W/m² | - |
* Rain latest hour (hover to see other rain measurements)
** Current wind speed in m/s (hover to see current wind gust speed)